createdAt,value
2022-12-05T09:00:41.065Z,93724.00
2022-12-05T09:00:52.337Z,93722.00
2022-12-05T09:01:03.999Z,93722.00
2022-12-05T09:01:15.422Z,93726.00
2022-12-05T09:01:27.035Z,93724.00
2022-12-05T09:01:38.792Z,93726.00
2022-12-05T09:01:48.427Z,93726.00
2022-12-05T09:02:00.022Z,93724.00
2022-12-05T09:02:11.400Z,93726.00
2022-12-05T09:02:23.104Z,93724.00
2022-12-05T09:02:34.430Z,93724.00
2022-12-05T09:02:46.019Z,93724.00
2022-12-05T09:02:57.369Z,93724.00
2022-12-05T09:03:09.030Z,93726.00
2022-12-05T09:03:20.326Z,93724.00
2022-12-05T09:03:31.875Z,93724.00
2022-12-05T09:03:47.625Z,93724.00
2022-12-05T09:03:55.083Z,93726.00
2022-12-05T09:04:06.364Z,93724.00
2022-12-05T09:04:17.923Z,93722.00
2022-12-05T09:04:29.194Z,93720.00
2022-12-05T09:04:40.727Z,93718.00
2022-12-05T09:04:54.105Z,93720.00
2022-12-05T09:05:19.360Z,93720.00
2022-12-05T09:05:27.796Z,93718.00
2022-12-05T09:05:29.443Z,93716.00
2022-12-05T09:05:38.898Z,93716.00
2022-12-05T09:05:54.687Z,93718.00
2022-12-05T09:06:02.003Z,93718.00
2022-12-05T09:06:13.267Z,93718.00
2022-12-05T09:06:24.787Z,93718.00
2022-12-05T09:06:36.065Z,93718.00
2022-12-05T09:06:47.617Z,93714.00
2022-12-05T09:06:58.883Z,93714.00
2022-12-05T09:07:10.419Z,93714.00
2022-12-05T09:07:21.700Z,93716.00
2022-12-05T09:07:33.278Z,93714.00
2022-12-05T09:07:44.662Z,93714.00
2022-12-05T09:07:56.317Z,93714.00
2022-12-05T09:08:07.763Z,93720.00
2022-12-05T09:08:19.418Z,93716.00
2022-12-05T09:08:30.731Z,93716.00
2022-12-05T09:08:42.286Z,93714.00
2022-12-05T09:08:53.576Z,93716.00
2022-12-05T09:09:05.129Z,93718.00
2022-12-05T09:09:16.422Z,93718.00
2022-12-05T09:09:27.957Z,93716.00
2022-12-05T09:09:39.261Z,93716.00
2022-12-05T09:09:50.803Z,93716.00
2022-12-05T09:10:02.072Z,93716.00
2022-12-05T09:10:13.604Z,93716.00
2022-12-05T09:10:24.973Z,93716.00
2022-12-05T09:10:36.563Z,93716.00
2022-12-05T09:10:47.848Z,93716.00
2022-12-05T09:10:59.383Z,93714.00
2022-12-05T09:11:10.656Z,93718.00
2022-12-05T09:11:22.185Z,93716.00
2022-12-05T09:11:33.447Z,93716.00
2022-12-05T09:11:44.983Z,93716.00
2022-12-05T09:11:56.276Z,93716.00
2022-12-05T09:12:07.816Z,93714.00
2022-12-05T09:12:19.091Z,93714.00
2022-12-05T09:12:30.620Z,93716.00
2022-12-05T09:12:41.900Z,93714.00
2022-12-05T09:12:53.441Z,93714.00
2022-12-05T09:13:04.737Z,93714.00
2022-12-05T09:13:16.270Z,93714.00
2022-12-05T09:13:27.533Z,93714.00
2022-12-05T09:13:39.066Z,93714.00
2022-12-05T09:13:50.339Z,93710.00
2022-12-05T09:14:01.870Z,93714.00
2022-12-05T09:14:13.178Z,93710.00
2022-12-05T09:14:24.713Z,93710.00
2022-12-05T09:14:35.974Z,93708.00
2022-12-05T09:14:47.512Z,93708.00
2022-12-05T09:14:59.035Z,93706.00
2022-12-05T09:15:10.799Z,93710.00
2022-12-05T09:15:22.063Z,93708.00
2022-12-05T09:15:33.663Z,93704.00
2022-12-05T09:15:45.106Z,93708.00
2022-12-05T09:15:56.721Z,93708.00
2022-12-05T09:16:08.198Z,93708.00
2022-12-05T09:16:19.856Z,93706.00
2022-12-05T09:16:36.956Z,93702.00
2022-12-05T09:16:43.155Z,93704.00
2022-12-05T09:16:54.413Z,93706.00
2022-12-05T09:17:05.956Z,93704.00
2022-12-05T09:17:17.235Z,93704.00
2022-12-05T09:17:28.761Z,93702.00
2022-12-05T09:17:40.072Z,93702.00
2022-12-05T09:17:51.627Z,93702.00
2022-12-05T09:18:02.895Z,93700.00
2022-12-05T09:18:14.418Z,93700.00
2022-12-05T09:18:25.701Z,93702.00
2022-12-05T09:18:37.243Z,93700.00
2022-12-05T09:18:48.519Z,93700.00
2022-12-05T09:19:00.046Z,93700.00
2022-12-05T09:19:11.346Z,93700.00
2022-12-05T09:19:22.873Z,93696.00
2022-12-05T09:19:34.135Z,93702.00
2022-12-05T09:19:45.656Z,93698.00
2022-12-05T09:19:56.921Z,93698.00
2022-12-05T09:20:08.440Z,93700.00
2022-12-05T09:20:19.708Z,93700.00
2022-12-05T09:20:31.232Z,93696.00
2022-12-05T09:20:42.503Z,93700.00
2022-12-05T09:20:54.038Z,93698.00
2022-12-05T09:21:05.307Z,93698.00
2022-12-05T09:21:16.876Z,93698.00
2022-12-05T09:21:28.167Z,93698.00
2022-12-05T09:21:39.725Z,93700.00
2022-12-05T09:21:51.015Z,93698.00
2022-12-05T09:22:02.548Z,93698.00
2022-12-05T09:22:13.825Z,93696.00
2022-12-05T09:22:25.364Z,93698.00
2022-12-05T09:22:36.636Z,93696.00
2022-12-05T09:22:48.175Z,93694.00
2022-12-05T09:22:59.458Z,93698.00
2022-12-05T09:23:15.885Z,93694.00
2022-12-05T09:23:22.942Z,93696.00
2022-12-05T09:23:34.204Z,93696.00
2022-12-05T09:23:45.735Z,93698.00
2022-12-05T09:23:57.025Z,93694.00
2022-12-05T09:24:08.566Z,93694.00
2022-12-05T09:24:19.886Z,93700.00
2022-12-05T09:24:31.420Z,93698.00
2022-12-05T09:24:42.697Z,93698.00
2022-12-05T09:24:54.232Z,93696.00
2022-12-05T09:25:05.509Z,93696.00
2022-12-05T09:25:17.034Z,93696.00
2022-12-05T09:25:28.299Z,93694.00
2022-12-05T09:25:39.841Z,93696.00
2022-12-05T09:25:51.142Z,93694.00
2022-12-05T09:26:02.687Z,93694.00
2022-12-05T09:26:13.974Z,93694.00
2022-12-05T09:26:25.553Z,93694.00
2022-12-05T09:26:36.832Z,93696.00
2022-12-05T09:26:48.363Z,93696.00
2022-12-05T09:26:59.660Z,93696.00
2022-12-05T09:27:11.185Z,93694.00
2022-12-05T09:27:22.447Z,93692.00
2022-12-05T09:27:33.970Z,93694.00
2022-12-05T09:27:45.245Z,93694.00
2022-12-05T09:27:56.785Z,93692.00
2022-12-05T09:28:08.086Z,93690.00
2022-12-05T09:28:19.634Z,93694.00
2022-12-05T09:28:30.907Z,93692.00
2022-12-05T09:28:42.440Z,93692.00
2022-12-05T09:28:53.699Z,93694.00
2022-12-05T09:29:05.222Z,93692.00
2022-12-05T09:29:17.749Z,93690.00
2022-12-05T09:29:27.341Z,93690.00
2022-12-05T09:29:38.865Z,93692.00
2022-12-05T09:29:50.128Z,93690.00
2022-12-05T09:30:01.665Z,93690.00
2022-12-05T09:30:12.928Z,93690.00
2022-12-05T09:30:24.441Z,93688.00
2022-12-05T09:30:35.698Z,93694.00
2022-12-05T09:30:47.283Z,93692.00
2022-12-05T09:30:58.704Z,93692.00
2022-12-05T09:31:10.353Z,93688.00
2022-12-05T09:31:21.747Z,93692.00
2022-12-05T09:31:33.557Z,93692.00
2022-12-05T09:31:45.022Z,93690.00
2022-12-05T09:31:56.624Z,93688.00
2022-12-05T09:32:07.900Z,93688.00
2022-12-05T09:32:19.434Z,93688.00
2022-12-05T09:32:30.711Z,93688.00
2022-12-05T09:32:42.246Z,93688.00
2022-12-05T09:32:53.516Z,93688.00
2022-12-05T09:33:05.055Z,93686.00
2022-12-05T09:33:16.328Z,93686.00
2022-12-05T09:33:27.859Z,93686.00
2022-12-05T09:33:39.127Z,93686.00
2022-12-05T09:33:50.651Z,93688.00
2022-12-05T09:34:01.944Z,93690.00
2022-12-05T09:34:13.488Z,93686.00
2022-12-05T09:34:24.783Z,93690.00
2022-12-05T09:34:36.320Z,93688.00
2022-12-05T09:34:47.605Z,93688.00
2022-12-05T09:34:59.594Z,93692.00
2022-12-05T09:35:11.304Z,93690.00
2022-12-05T09:35:22.575Z,93690.00
2022-12-05T09:35:34.116Z,93692.00
2022-12-05T09:35:45.388Z,93694.00
2022-12-05T09:35:56.945Z,93690.00
2022-12-05T09:36:08.229Z,93692.00
2022-12-05T09:36:19.771Z,93694.00
2022-12-05T09:36:31.055Z,93694.00
2022-12-05T09:36:42.598Z,93692.00
2022-12-05T09:37:10.285Z,93696.00
2022-12-05T09:37:23.234Z,93698.00
2022-12-05T09:37:38.129Z,93694.00
2022-12-05T09:37:41.569Z,93700.00
2022-12-05T09:37:41.891Z,93696.00
2022-12-05T09:37:52.842Z,93700.00
2022-12-05T09:38:04.372Z,93698.00
2022-12-05T09:38:15.652Z,93698.00
2022-12-05T09:38:27.195Z,93704.00
2022-12-05T09:38:38.483Z,93704.00
2022-12-05T09:38:50.034Z,93704.00
2022-12-05T09:39:01.329Z,93704.00
2022-12-05T09:39:12.894Z,93704.00
2022-12-05T09:39:24.187Z,93706.00
2022-12-05T09:39:35.732Z,93704.00
2022-12-05T09:39:47.012Z,93706.00
2022-12-05T09:39:58.549Z,93706.00
2022-12-05T09:40:09.825Z,93704.00
2022-12-05T09:40:21.350Z,93706.00
2022-12-05T09:40:32.620Z,93706.00
2022-12-05T09:40:44.183Z,93704.00
2022-12-05T09:40:58.982Z,93704.00
2022-12-05T09:41:06.224Z,93704.00
2022-12-05T09:41:17.504Z,93702.00
2022-12-05T09:41:29.055Z,93702.00
2022-12-05T09:41:40.345Z,93702.00
2022-12-05T09:41:51.923Z,93700.00
2022-12-05T09:42:03.188Z,93702.00
2022-12-05T09:42:14.709Z,93700.00
2022-12-05T09:42:25.987Z,93700.00
2022-12-05T09:42:37.521Z,93700.00
2022-12-05T09:42:48.799Z,93698.00
2022-12-05T09:43:00.344Z,93698.00
2022-12-05T09:43:11.620Z,93698.00
2022-12-05T09:43:23.150Z,93696.00
2022-12-05T09:43:34.442Z,93698.00
2022-12-05T09:43:45.962Z,93696.00
2022-12-05T09:43:57.236Z,93694.00
2022-12-05T09:44:08.785Z,93696.00
2022-12-05T09:44:20.063Z,93696.00
2022-12-05T09:44:31.591Z,93694.00
2022-12-05T09:44:42.864Z,93694.00
2022-12-05T09:44:54.414Z,93694.00
2022-12-05T09:45:05.691Z,93696.00
2022-12-05T09:45:17.218Z,93696.00
2022-12-05T09:45:28.496Z,93694.00
2022-12-05T09:45:40.035Z,93700.00
2022-12-05T09:45:51.385Z,93694.00
2022-12-05T09:46:03.047Z,93696.00
2022-12-05T09:46:14.388Z,93698.00
2022-12-05T09:46:26.096Z,93696.00
2022-12-05T09:46:37.490Z,93698.00
2022-12-05T09:46:49.054Z,93700.00
2022-12-05T09:47:00.406Z,93700.00
2022-12-05T09:47:11.945Z,93700.00
2022-12-05T09:47:23.221Z,93698.00
2022-12-05T09:47:34.753Z,93698.00
2022-12-05T09:47:46.031Z,93702.00
2022-12-05T09:47:57.562Z,93700.00
2022-12-05T09:48:08.838Z,93702.00
2022-12-05T09:48:20.466Z,93702.00
2022-12-05T09:48:31.753Z,93700.00
2022-12-05T09:48:43.308Z,93702.00
2022-12-05T09:48:54.603Z,93702.00
2022-12-05T09:49:06.166Z,93702.00
2022-12-05T09:49:17.453Z,93702.00
2022-12-05T09:49:28.992Z,93702.00
2022-12-05T09:49:40.276Z,93700.00
2022-12-05T09:49:51.823Z,93702.00
2022-12-05T09:50:03.128Z,93704.00
2022-12-05T09:50:14.666Z,93704.00
2022-12-05T09:50:25.940Z,93704.00
2022-12-05T09:50:37.500Z,93702.00
2022-12-05T09:50:48.785Z,93702.00
2022-12-05T09:51:00.339Z,93704.00
2022-12-05T09:51:11.620Z,93704.00
2022-12-05T09:51:23.142Z,93704.00
2022-12-05T09:51:34.411Z,93704.00
2022-12-05T09:51:49.584Z,93706.00
2022-12-05T09:51:57.862Z,93706.00
2022-12-05T09:52:09.208Z,93708.00
2022-12-05T09:52:20.752Z,93708.00
2022-12-05T09:52:32.025Z,93706.00
2022-12-05T09:52:43.552Z,93706.00
2022-12-05T09:52:54.807Z,93706.00
2022-12-05T09:53:06.336Z,93710.00
2022-12-05T09:53:17.614Z,93708.00
2022-12-05T09:53:29.157Z,93710.00
2022-12-05T09:53:40.447Z,93712.00
2022-12-05T09:53:51.987Z,93714.00
2022-12-05T09:54:03.258Z,93714.00
2022-12-05T09:54:14.809Z,93720.00
2022-12-05T09:54:26.100Z,93718.00
2022-12-05T09:54:37.638Z,93718.00
2022-12-05T09:54:48.917Z,93718.00
2022-12-05T09:55:00.529Z,93716.00
2022-12-05T09:55:11.820Z,93716.00
2022-12-05T09:55:23.346Z,93718.00
2022-12-05T09:55:34.605Z,93716.00
2022-12-05T09:55:46.171Z,93716.00
2022-12-05T09:55:57.448Z,93716.00
2022-12-05T09:56:08.988Z,93716.00
2022-12-05T09:56:20.258Z,93716.00
2022-12-05T09:56:31.781Z,93712.00
2022-12-05T09:56:43.045Z,93714.00
2022-12-05T09:56:54.567Z,93710.00
2022-12-05T09:57:05.840Z,93710.00
2022-12-05T09:57:17.399Z,93710.00
2022-12-05T09:57:33.515Z,93710.00
2022-12-05T09:57:40.599Z,93710.00
2022-12-05T09:57:51.870Z,93708.00
2022-12-05T09:58:03.397Z,93706.00
2022-12-05T09:58:14.664Z,93706.00
2022-12-05T09:58:26.193Z,93704.00
2022-12-05T09:58:37.489Z,93702.00
2022-12-05T09:58:49.032Z,93704.00
2022-12-05T09:59:00.307Z,93704.00
2022-12-05T09:59:11.849Z,93702.00
2022-12-05T09:59:23.134Z,93700.00
2022-12-05T09:59:34.670Z,93700.00
2022-12-05T09:59:45.946Z,93700.00
2022-12-05T09:59:57.478Z,93698.00
2022-12-05T10:00:08.765Z,93702.00
2022-12-05T10:00:20.307Z,93700.00
2022-12-05T10:00:31.586Z,93702.00
2022-12-05T10:00:43.116Z,93702.00
2022-12-05T10:00:54.413Z,93700.00
2022-12-05T10:01:05.943Z,93700.00
2022-12-05T10:01:17.261Z,93702.00
2022-12-05T10:01:28.945Z,93704.00
2022-12-05T10:01:40.419Z,93704.00
2022-12-05T10:01:52.062Z,93706.00
2022-12-05T10:02:03.463Z,93704.00
2022-12-05T10:02:15.122Z,93708.00
2022-12-05T10:02:26.560Z,93706.00
2022-12-05T10:02:38.094Z,93706.00
2022-12-05T10:02:49.415Z,93710.00
2022-12-05T10:03:00.968Z,93710.00
2022-12-05T10:03:12.252Z,93712.00
2022-12-05T10:03:23.800Z,93710.00
2022-12-05T10:03:35.072Z,93710.00
2022-12-05T10:03:46.600Z,93716.00
2022-12-05T10:03:57.899Z,93714.00
2022-12-05T10:04:09.492Z,93714.00
2022-12-05T10:04:20.847Z,93716.00
2022-12-05T10:04:32.472Z,93714.00
2022-12-05T10:04:43.872Z,93716.00
2022-12-05T10:05:00.129Z,93716.00
2022-12-05T10:05:07.903Z,93714.00
2022-12-05T10:05:19.842Z,93716.00
2022-12-05T10:05:31.271Z,93716.00
2022-12-05T10:05:42.911Z,93716.00
2022-12-05T10:05:54.218Z,93712.00
2022-12-05T10:06:05.766Z,93714.00
2022-12-05T10:06:17.053Z,93718.00
2022-12-05T10:06:28.601Z,93716.00
2022-12-05T10:06:39.921Z,93714.00
2022-12-05T10:06:51.462Z,93714.00
2022-12-05T10:07:02.741Z,93716.00
2022-12-05T10:07:14.278Z,93714.00
2022-12-05T10:07:25.559Z,93716.00
2022-12-05T10:07:37.214Z,93714.00
2022-12-05T10:07:48.581Z,93716.00
2022-12-05T10:08:00.295Z,93714.00
2022-12-05T10:08:11.721Z,93714.00
2022-12-05T10:08:23.401Z,93714.00
2022-12-05T10:08:34.712Z,93714.00
2022-12-05T10:08:46.245Z,93712.00
2022-12-05T10:08:57.526Z,93714.00
2022-12-05T10:09:09.049Z,93712.00
2022-12-05T10:09:20.315Z,93712.00
2022-12-05T10:09:31.858Z,93710.00
2022-12-05T10:09:43.150Z,93710.00
2022-12-05T10:09:54.685Z,93710.00
2022-12-05T10:10:05.954Z,93710.00
2022-12-05T10:10:20.296Z,93708.00
2022-12-05T10:10:27.630Z,93708.00
2022-12-05T10:10:38.954Z,93708.00
2022-12-05T10:10:50.500Z,93708.00
2022-12-05T10:11:01.790Z,93708.00
2022-12-05T10:11:13.339Z,93706.00
2022-12-05T10:11:24.630Z,93706.00
2022-12-05T10:11:36.156Z,93704.00
2022-12-05T10:11:47.445Z,93706.00
2022-12-05T10:11:58.982Z,93706.00
2022-12-05T10:12:10.252Z,93704.00
2022-12-05T10:12:21.811Z,93702.00
2022-12-05T10:12:33.100Z,93708.00
2022-12-05T10:12:44.649Z,93706.00
2022-12-05T10:12:55.931Z,93704.00
2022-12-05T10:13:07.469Z,93704.00
2022-12-05T10:13:18.756Z,93702.00
2022-12-05T10:13:30.300Z,93702.00
2022-12-05T10:13:41.585Z,93702.00
2022-12-05T10:13:53.141Z,93702.00
2022-12-05T10:14:04.430Z,93702.00
2022-12-05T10:14:15.976Z,93700.00
2022-12-05T10:14:27.253Z,93700.00
2022-12-05T10:14:38.785Z,93702.00
2022-12-05T10:14:50.063Z,93702.00
2022-12-05T10:15:01.599Z,93700.00
2022-12-05T10:15:12.996Z,93702.00
2022-12-05T10:15:24.512Z,93700.00
2022-12-05T10:15:35.920Z,93698.00
2022-12-05T10:15:47.562Z,93702.00
2022-12-05T10:15:58.950Z,93700.00
2022-12-05T10:16:10.630Z,93698.00
2022-12-05T10:16:22.009Z,93698.00
2022-12-05T10:16:33.629Z,93698.00
2022-12-05T10:16:45.105Z,93696.00
2022-12-05T10:16:56.761Z,93696.00
2022-12-05T10:17:08.027Z,93698.00
2022-12-05T10:17:19.558Z,93698.00
2022-12-05T10:17:30.861Z,93698.00
2022-12-05T10:17:42.405Z,93698.00
2022-12-05T10:17:53.719Z,93692.00
2022-12-05T10:18:05.247Z,93696.00
2022-12-05T10:18:16.531Z,93694.00
2022-12-05T10:18:28.061Z,93696.00
2022-12-05T10:18:39.340Z,93694.00
2022-12-05T10:18:50.875Z,93692.00
2022-12-05T10:19:02.140Z,93694.00
2022-12-05T10:19:13.660Z,93692.00
2022-12-05T10:19:24.930Z,93694.00
2022-12-05T10:19:36.463Z,93690.00
2022-12-05T10:19:47.736Z,93692.00
2022-12-05T10:19:59.271Z,93690.00
2022-12-05T10:20:10.549Z,93692.00
2022-12-05T10:20:22.087Z,93692.00
2022-12-05T10:20:33.369Z,93692.00
2022-12-05T10:20:44.905Z,93690.00
2022-12-05T10:20:56.168Z,93690.00
2022-12-05T10:21:07.720Z,93692.00
2022-12-05T10:21:19.009Z,93690.00
2022-12-05T10:21:30.564Z,93692.00
2022-12-05T10:21:41.851Z,93694.00
2022-12-05T10:21:53.398Z,93692.00
2022-12-05T10:22:04.681Z,93692.00
2022-12-05T10:22:20.497Z,93692.00
2022-12-05T10:22:27.946Z,93694.00
2022-12-05T10:22:39.218Z,93694.00
2022-12-05T10:22:50.738Z,93694.00
2022-12-05T10:23:02.060Z,93692.00
2022-12-05T10:23:28.126Z,93690.00
2022-12-05T10:23:55.486Z,93690.00
2022-12-05T10:23:57.424Z,93690.00
2022-12-05T10:24:01.313Z,93690.00
2022-12-05T10:24:12.594Z,93688.00
2022-12-05T10:24:24.122Z,93690.00
2022-12-05T10:24:35.381Z,93688.00
2022-12-05T10:24:46.911Z,93688.00
2022-12-05T10:24:58.377Z,93686.00
2022-12-05T10:25:10.072Z,93690.00
2022-12-05T10:25:21.363Z,93688.00
2022-12-05T10:25:32.911Z,93688.00
2022-12-05T10:25:44.176Z,93686.00
2022-12-05T10:25:55.696Z,93688.00
2022-12-05T10:26:06.980Z,93688.00
2022-12-05T10:26:18.507Z,93686.00
2022-12-05T10:26:29.791Z,93686.00
2022-12-05T10:26:41.337Z,93688.00
2022-12-05T10:26:52.615Z,93686.00
2022-12-05T10:27:04.142Z,93688.00
2022-12-05T10:27:15.406Z,93684.00
2022-12-05T10:27:26.938Z,93686.00
2022-12-05T10:27:40.388Z,93686.00
2022-12-05T10:27:49.748Z,93686.00
2022-12-05T10:28:01.283Z,93686.00
2022-12-05T10:28:12.600Z,93686.00
2022-12-05T10:28:24.140Z,93684.00
2022-12-05T10:28:35.425Z,93684.00
2022-12-05T10:28:46.976Z,93684.00
2022-12-05T10:28:58.256Z,93684.00
2022-12-05T10:29:09.773Z,93684.00
2022-12-05T10:29:21.042Z,93684.00
2022-12-05T10:29:32.562Z,93682.00
2022-12-05T10:29:43.839Z,93684.00
2022-12-05T10:29:55.377Z,93684.00
2022-12-05T10:30:06.674Z,93681.00
2022-12-05T10:30:18.238Z,93681.00
2022-12-05T10:30:29.519Z,93681.00
2022-12-05T10:30:41.062Z,93681.00
2022-12-05T10:30:52.374Z,93681.00
2022-12-05T10:31:04.056Z,93681.00
2022-12-05T10:31:15.377Z,93679.00
2022-12-05T10:31:27.043Z,93679.00
2022-12-05T10:31:38.504Z,93677.00
2022-12-05T10:31:50.117Z,93679.00
2022-12-05T10:32:01.399Z,93677.00
2022-12-05T10:32:12.935Z,93679.00
2022-12-05T10:32:24.214Z,93677.00
2022-12-05T10:32:35.760Z,93679.00
2022-12-05T10:32:48.376Z,93677.00
2022-12-05T10:32:57.578Z,93677.00
2022-12-05T10:33:09.789Z,93675.00
2022-12-05T10:33:21.489Z,93677.00
2022-12-05T10:33:32.772Z,93677.00
2022-12-05T10:33:44.323Z,93675.00
2022-12-05T10:33:55.597Z,93675.00
2022-12-05T10:34:07.124Z,93679.00
2022-12-05T10:34:18.397Z,93677.00
2022-12-05T10:34:29.945Z,93677.00
2022-12-05T10:34:41.225Z,93677.00
2022-12-05T10:34:52.772Z,93677.00
2022-12-05T10:35:04.067Z,93675.00
2022-12-05T10:35:15.610Z,93679.00
2022-12-05T10:35:26.988Z,93679.00
2022-12-05T10:35:38.549Z,93677.00
2022-12-05T10:35:49.825Z,93679.00
2022-12-05T10:36:01.356Z,93679.00
2022-12-05T10:36:12.628Z,93679.00
2022-12-05T10:36:24.162Z,93677.00
2022-12-05T10:36:35.440Z,93675.00
2022-12-05T10:36:46.977Z,93671.00
2022-12-05T10:36:58.263Z,93675.00
2022-12-05T10:37:09.810Z,93673.00
2022-12-05T10:37:21.087Z,93673.00
2022-12-05T10:37:32.641Z,93671.00
2022-12-05T10:37:43.920Z,93671.00
2022-12-05T10:37:55.463Z,93669.00
2022-12-05T10:38:06.762Z,93667.00
2022-12-05T10:38:18.290Z,93665.00
2022-12-05T10:38:29.612Z,93669.00
2022-12-05T10:38:41.151Z,93665.00
2022-12-05T10:38:52.429Z,93667.00
2022-12-05T10:39:08.408Z,93667.00
2022-12-05T10:39:15.894Z,93665.00
2022-12-05T10:39:27.175Z,93669.00
2022-12-05T10:39:38.704Z,93665.00
2022-12-05T10:39:49.984Z,93663.00
2022-12-05T10:40:01.525Z,93667.00
2022-12-05T10:40:12.808Z,93667.00
2022-12-05T10:40:24.341Z,93667.00
2022-12-05T10:40:35.615Z,93667.00
2022-12-05T10:40:47.145Z,93665.00
2022-12-05T10:40:58.419Z,93667.00
2022-12-05T10:41:09.958Z,93667.00
2022-12-05T10:41:21.248Z,93669.00
2022-12-05T10:41:32.786Z,93671.00
2022-12-05T10:41:44.052Z,93673.00
2022-12-05T10:41:55.591Z,93675.00
2022-12-05T10:42:06.883Z,93673.00
2022-12-05T10:42:18.431Z,93673.00
2022-12-05T10:42:29.714Z,93675.00
2022-12-05T10:42:41.232Z,93671.00
2022-12-05T10:42:52.512Z,93673.00
2022-12-05T10:43:04.053Z,93671.00
2022-12-05T10:43:15.321Z,93671.00
2022-12-05T10:43:26.851Z,93673.00
2022-12-05T10:43:38.147Z,93673.00
2022-12-05T10:43:49.700Z,93671.00
2022-12-05T10:44:00.977Z,93673.00
2022-12-05T10:44:12.510Z,93671.00
2022-12-05T10:44:23.786Z,93671.00
2022-12-05T10:44:35.328Z,93667.00
2022-12-05T10:44:46.612Z,93667.00
2022-12-05T10:44:58.582Z,93665.00
2022-12-05T10:45:10.343Z,93667.00
2022-12-05T10:45:21.628Z,93667.00
2022-12-05T10:45:33.176Z,93663.00
2022-12-05T10:45:44.437Z,93665.00
2022-12-05T10:45:55.966Z,93665.00
2022-12-05T10:46:09.736Z,93667.00
2022-12-05T10:46:18.710Z,93661.00
2022-12-05T10:46:30.031Z,93665.00
2022-12-05T10:46:41.670Z,93667.00
2022-12-05T10:46:53.045Z,93665.00
2022-12-05T10:47:04.680Z,93663.00
2022-12-05T10:47:16.085Z,93663.00
2022-12-05T10:47:27.694Z,93667.00
2022-12-05T10:47:38.962Z,93663.00
2022-12-05T10:47:50.497Z,93665.00
2022-12-05T10:48:01.765Z,93663.00
2022-12-05T10:48:13.306Z,93661.00
2022-12-05T10:48:24.585Z,93665.00
2022-12-05T10:48:36.159Z,93663.00
2022-12-05T10:48:47.452Z,93663.00
2022-12-05T10:48:58.977Z,93661.00
2022-12-05T10:49:10.254Z,93663.00
2022-12-05T10:49:21.802Z,93661.00
2022-12-05T10:49:33.076Z,93661.00
2022-12-05T10:49:44.609Z,93659.00
2022-12-05T10:49:55.882Z,93661.00
2022-12-05T10:50:07.415Z,93661.00
2022-12-05T10:50:18.693Z,93659.00
2022-12-05T10:50:30.252Z,93657.00
2022-12-05T10:50:41.526Z,93661.00
2022-12-05T10:50:53.091Z,93659.00
2022-12-05T10:51:04.376Z,93657.00
2022-12-05T10:51:15.914Z,93657.00
2022-12-05T10:51:29.213Z,93653.00
2022-12-05T10:51:39.133Z,93651.00
2022-12-05T10:51:50.407Z,93653.00
2022-12-05T10:52:01.950Z,93651.00
2022-12-05T10:52:13.228Z,93651.00
2022-12-05T10:52:24.771Z,93649.00
2022-12-05T10:52:36.060Z,93647.00
2022-12-05T10:52:47.589Z,93647.00
2022-12-05T10:52:58.871Z,93645.00
2022-12-05T10:53:10.398Z,93645.00
2022-12-05T10:53:21.739Z,93645.00
2022-12-05T10:53:33.292Z,93643.00
2022-12-05T10:53:44.600Z,93643.00
2022-12-05T10:53:56.162Z,93643.00
2022-12-05T10:54:07.438Z,93641.00
2022-12-05T10:54:18.960Z,93641.00
2022-12-05T10:54:30.232Z,93639.00
2022-12-05T10:54:41.760Z,93641.00
2022-12-05T10:54:53.040Z,93643.00
2022-12-05T10:55:04.571Z,93641.00
2022-12-05T10:55:15.855Z,93639.00
2022-12-05T10:55:27.399Z,93639.00
2022-12-05T10:55:38.673Z,93639.00
2022-12-05T10:56:21.437Z,93639.00
2022-12-05T10:56:29.992Z,93639.00
2022-12-05T10:56:30.661Z,93637.00
2022-12-05T10:56:30.858Z,93637.00
2022-12-05T10:56:37.902Z,93635.00
2022-12-05T10:56:49.170Z,93639.00
2022-12-05T10:57:00.698Z,93639.00
2022-12-05T10:57:11.973Z,93639.00
2022-12-05T10:57:23.533Z,93639.00
2022-12-05T10:57:34.821Z,93637.00
2022-12-05T10:57:46.371Z,93637.00
2022-12-05T10:57:57.653Z,93637.00
2022-12-05T10:58:13.994Z,93641.00
2022-12-05T10:58:21.113Z,93641.00
2022-12-05T10:58:32.412Z,93641.00
2022-12-05T10:58:43.972Z,93641.00
2022-12-05T10:58:55.430Z,93641.00
2022-12-05T10:59:07.712Z,93641.00
2022-12-05T10:59:19.123Z,93643.00
2022-12-05T10:59:29.600Z,93641.00
2022-12-05T10:59:41.541Z,93639.00
2022-12-05T10:59:53.020Z,93641.00
2022-12-05T11:00:05.325Z,93641.00
2022-12-05T11:00:16.753Z,93641.00
2022-12-05T11:00:28.715Z,93641.00
2022-12-05T11:00:40.833Z,93639.00
2022-12-05T11:00:52.346Z,93639.00
2022-12-05T11:01:04.491Z,93639.00
2022-12-05T11:01:16.091Z,93637.00
2022-12-05T11:01:28.207Z,93639.00
2022-12-05T11:01:40.314Z,93635.00
2022-12-05T11:01:51.765Z,93635.00
2022-12-05T11:02:01.818Z,93634.00
2022-12-05T11:02:13.600Z,93634.00
2022-12-05T11:02:25.028Z,93634.00
2022-12-05T11:02:36.627Z,93632.00
2022-12-05T11:02:47.910Z,93634.00
2022-12-05T11:02:59.468Z,93630.00
2022-12-05T11:03:10.760Z,93630.00
2022-12-05T11:03:22.301Z,93630.00
2022-12-05T11:03:33.597Z,93630.00
2022-12-05T11:03:45.193Z,93628.00
2022-12-05T11:03:56.475Z,93630.00
2022-12-05T11:04:13.535Z,93626.00
2022-12-05T11:04:19.998Z,93628.00
2022-12-05T11:04:31.279Z,93626.00
2022-12-05T11:04:42.862Z,93626.00
2022-12-05T11:04:54.201Z,93626.00
2022-12-05T11:05:05.887Z,93624.00
2022-12-05T11:05:17.331Z,93622.00
2022-12-05T11:05:28.958Z,93620.00
2022-12-05T11:05:40.405Z,93620.00
2022-12-05T11:05:51.974Z,93622.00
2022-12-05T11:06:03.248Z,93620.00
2022-12-05T11:06:14.814Z,93622.00
2022-12-05T11:06:26.119Z,93618.00
2022-12-05T11:06:37.653Z,93620.00
2022-12-05T11:06:48.923Z,93618.00
2022-12-05T11:07:00.471Z,93620.00
2022-12-05T11:07:11.760Z,93620.00
2022-12-05T11:07:23.292Z,93620.00
2022-12-05T11:07:34.666Z,93618.00
2022-12-05T11:07:46.366Z,93618.00
2022-12-05T11:07:57.729Z,93616.00
2022-12-05T11:08:09.383Z,93620.00
2022-12-05T11:08:35.453Z,93614.00
2022-12-05T11:09:02.558Z,93616.00
2022-12-05T11:09:04.253Z,93616.00
2022-12-05T11:09:07.284Z,93616.00
2022-12-05T11:09:08.391Z,93618.00
2022-12-05T11:09:19.664Z,93616.00
2022-12-05T11:09:31.251Z,93616.00
2022-12-05T11:09:42.539Z,93616.00
2022-12-05T11:09:54.075Z,93614.00
2022-12-05T11:10:05.350Z,93614.00
2022-12-05T11:10:16.872Z,93618.00
2022-12-05T11:10:28.157Z,93616.00
2022-12-05T11:10:39.753Z,93614.00
2022-12-05T11:10:51.032Z,93616.00
2022-12-05T11:11:02.560Z,93616.00
2022-12-05T11:11:13.828Z,93616.00
2022-12-05T11:11:25.382Z,93614.00
2022-12-05T11:11:36.668Z,93614.00
2022-12-05T11:11:48.211Z,93616.00
2022-12-05T11:11:59.485Z,93614.00
2022-12-05T11:12:11.030Z,93604.00
2022-12-05T11:12:22.305Z,93612.00
2022-12-05T11:12:33.834Z,93612.00
2022-12-05T11:12:45.103Z,93604.00
2022-12-05T11:12:56.628Z,93602.00
2022-12-05T11:13:07.895Z,93602.00
2022-12-05T11:13:19.417Z,93604.00
2022-12-05T11:13:30.689Z,93602.00
2022-12-05T11:13:42.230Z,93602.00
2022-12-05T11:13:53.510Z,93600.00
2022-12-05T11:14:05.039Z,93600.00
2022-12-05T11:14:16.321Z,93600.00
2022-12-05T11:14:27.845Z,93600.00
2022-12-05T11:14:39.166Z,93600.00
2022-12-05T11:14:50.691Z,93598.00
2022-12-05T11:15:02.154Z,93600.00
2022-12-05T11:15:13.677Z,93594.00